sensor_id;sensor_type;location;lat;lon;timestamp;P1;durP1;ratioP1;P2;durP2;ratioP2
27684;SDS011;46113;50.130;8.526;2024-02-26T00:01:54;2.70;;;1.33;;
27684;SDS011;46113;50.130;8.526;2024-02-26T00:04:21;1.08;;;0.93;;
27684;SDS011;46113;50.130;8.526;2024-02-26T00:06:48;2.03;;;1.15;;
27684;SDS011;46113;50.130;8.526;2024-02-26T00:09:17;1.80;;;1.05;;
27684;SDS011;46113;50.130;8.526;2024-02-26T00:11:44;1.38;;;1.13;;
27684;SDS011;46113;50.130;8.526;2024-02-26T00:14:11;2.33;;;1.15;;
27684;SDS011;46113;50.130;8.526;2024-02-26T00:16:41;1.10;;;1.00;;
27684;SDS011;46113;50.130;8.526;2024-02-26T00:19:08;2.45;;;1.17;;
27684;SDS011;46113;50.130;8.526;2024-02-26T00:21:34;3.55;;;1.40;;
27684;SDS011;46113;50.130;8.526;2024-02-26T00:24:01;1.98;;;0.95;;
27684;SDS011;46113;50.130;8.526;2024-02-26T00:26:28;2.10;;;0.95;;
27684;SDS011;46113;50.130;8.526;2024-02-26T00:28:55;1.17;;;1.08;;
27684;SDS011;46113;50.130;8.526;2024-02-26T00:31:21;1.23;;;0.95;;
27684;SDS011;46113;50.130;8.526;2024-02-26T00:33:48;1.08;;;0.98;;
27684;SDS011;46113;50.130;8.526;2024-02-26T00:36:15;3.00;;;1.08;;
27684;SDS011;46113;50.130;8.526;2024-02-26T00:38:42;1.13;;;1.00;;
27684;SDS011;46113;50.130;8.526;2024-02-26T00:41:11;2.47;;;1.05;;
27684;SDS011;46113;50.130;8.526;2024-02-26T00:43:38;0.82;;;0.65;;
27684;SDS011;46113;50.130;8.526;2024-02-26T00:46:06;1.63;;;1.30;;
27684;SDS011;46113;50.130;8.526;2024-02-26T00:48:33;1.85;;;1.10;;
27684;SDS011;46113;50.130;8.526;2024-02-26T00:51:00;1.90;;;1.13;;
27684;SDS011;46113;50.130;8.526;2024-02-26T00:53:26;2.83;;;1.10;;
27684;SDS011;46113;50.130;8.526;2024-02-26T00:55:54;1.73;;;1.10;;
27684;SDS011;46113;50.130;8.526;2024-02-26T00:58:22;1.10;;;0.90;;
27684;SDS011;46113;50.130;8.526;2024-02-26T01:00:48;1.75;;;1.08;;
27684;SDS011;46113;50.130;8.526;2024-02-26T01:03:15;2.03;;;1.23;;
27684;SDS011;46113;50.130;8.526;2024-02-26T01:05:42;2.58;;;1.50;;
27684;SDS011;46113;50.130;8.526;2024-02-26T01:08:09;1.17;;;1.05;;
27684;SDS011;46113;50.130;8.526;2024-02-26T01:10:35;1.45;;;1.17;;
27684;SDS011;46113;50.130;8.526;2024-02-26T01:13:02;1.85;;;1.00;;
27684;SDS011;46113;50.130;8.526;2024-02-26T01:15:29;1.65;;;1.20;;
27684;SDS011;46113;50.130;8.526;2024-02-26T01:17:55;1.45;;;1.00;;
27684;SDS011;46113;50.130;8.526;2024-02-26T01:20:22;1.55;;;1.02;;
27684;SDS011;46113;50.130;8.526;2024-02-26T01:22:49;2.30;;;0.80;;
27684;SDS011;46113;50.130;8.526;2024-02-26T01:25:16;2.00;;;1.05;;
27684;SDS011;46113;50.130;8.526;2024-02-26T01:27:42;2.88;;;0.85;;
27684;SDS011;46113;50.130;8.526;2024-02-26T01:30:10;1.77;;;0.93;;
27684;SDS011;46113;50.130;8.526;2024-02-26T01:32:37;1.08;;;0.80;;
27684;SDS011;46113;50.130;8.526;2024-02-26T01:35:04;1.77;;;0.90;;
27684;SDS011;46113;50.130;8.526;2024-02-26T01:37:33;0.75;;;0.60;;
27684;SDS011;46113;50.130;8.526;2024-02-26T01:40:00;1.27;;;0.93;;
27684;SDS011;46113;50.130;8.526;2024-02-26T01:42:30;1.25;;;0.80;;
27684;SDS011;46113;50.130;8.526;2024-02-26T01:45:00;3.40;;;1.17;;
27684;SDS011;46113;50.130;8.526;2024-02-26T01:47:27;1.83;;;0.63;;
27684;SDS011;46113;50.130;8.526;2024-02-26T01:49:55;1.15;;;0.70;;
27684;SDS011;46113;50.130;8.526;2024-02-26T01:52:22;2.03;;;0.88;;
27684;SDS011;46113;50.130;8.526;2024-02-26T01:54:49;1.15;;;1.05;;
27684;SDS011;46113;50.130;8.526;2024-02-26T01:57:16;1.50;;;0.82;;
27684;SDS011;46113;50.130;8.526;2024-02-26T01:59:44;2.50;;;1.00;;
27684;SDS011;46113;50.130;8.526;2024-02-26T02:02:10;0.90;;;0.60;;
27684;SDS011;46113;50.130;8.526;2024-02-26T02:04:38;1.20;;;0.70;;
27684;SDS011;46113;50.130;8.526;2024-02-26T02:07:06;0.98;;;0.70;;
27684;SDS011;46113;50.130;8.526;2024-02-26T02:09:33;1.67;;;0.55;;
27684;SDS011;46113;50.130;8.526;2024-02-26T02:12:00;0.90;;;0.77;;
27684;SDS011;46113;50.130;8.526;2024-02-26T02:14:27;0.88;;;0.70;;
27684;SDS011;46113;50.130;8.526;2024-02-26T02:16:54;2.40;;;1.10;;
27684;SDS011;46113;50.130;8.526;2024-02-26T02:19:20;1.83;;;0.75;;
27684;SDS011;46113;50.130;8.526;2024-02-26T02:21:47;0.68;;;0.55;;
27684;SDS011;46113;50.130;8.526;2024-02-26T02:24:14;2.78;;;0.73;;
27684;SDS011;46113;50.130;8.526;2024-02-26T02:26:41;0.52;;;0.50;;
27684;SDS011;46113;50.130;8.526;2024-02-26T02:29:08;1.45;;;1.02;;
27684;SDS011;46113;50.130;8.526;2024-02-26T02:31:36;0.82;;;0.80;;
27684;SDS011;46113;50.130;8.526;2024-02-26T02:34:02;1.08;;;0.90;;
27684;SDS011;46113;50.130;8.526;2024-02-26T02:36:29;1.25;;;0.90;;
27684;SDS011;46113;50.130;8.526;2024-02-26T02:38:56;1.00;;;0.85;;
27684;SDS011;46113;50.130;8.526;2024-02-26T02:41:23;1.83;;;0.90;;
27684;SDS011;46113;50.130;8.526;2024-02-26T02:43:50;1.88;;;0.80;;
27684;SDS011;46113;50.130;8.526;2024-02-26T02:46:17;1.48;;;0.60;;
27684;SDS011;46113;50.130;8.526;2024-02-26T02:48:43;2.50;;;0.73;;
27684;SDS011;46113;50.130;8.526;2024-02-26T02:51:11;2.00;;;0.73;;
27684;SDS011;46113;50.130;8.526;2024-02-26T02:53:38;1.08;;;0.80;;
27684;SDS011;46113;50.130;8.526;2024-02-26T02:56:04;1.88;;;0.90;;
27684;SDS011;46113;50.130;8.526;2024-02-26T02:58:31;2.90;;;0.50;;
27684;SDS011;46113;50.130;8.526;2024-02-26T03:00:58;2.80;;;0.90;;
27684;SDS011;46113;50.130;8.526;2024-02-26T03:03:26;1.65;;;1.00;;
27684;SDS011;46113;50.130;8.526;2024-02-26T03:05:55;0.82;;;0.77;;
27684;SDS011;46113;50.130;8.526;2024-02-26T03:08:21;1.33;;;0.80;;
27684;SDS011;46113;50.130;8.526;2024-02-26T03:10:48;1.20;;;0.80;;
27684;SDS011;46113;50.130;8.526;2024-02-26T03:13:15;1.63;;;0.60;;
27684;SDS011;46113;50.130;8.526;2024-02-26T03:15:42;1.17;;;0.70;;
27684;SDS011;46113;50.130;8.526;2024-02-26T03:18:09;1.42;;;0.57;;
27684;SDS011;46113;50.130;8.526;2024-02-26T03:20:35;0.57;;;0.50;;
27684;SDS011;46113;50.130;8.526;2024-02-26T03:23:03;1.83;;;0.90;;
27684;SDS011;46113;50.130;8.526;2024-02-26T03:25:30;1.70;;;0.98;;
27684;SDS011;46113;50.130;8.526;2024-02-26T03:27:57;1.35;;;0.90;;
27684;SDS011;46113;50.130;8.526;2024-02-26T03:30:23;3.08;;;1.30;;
27684;SDS011;46113;50.130;8.526;2024-02-26T03:32:50;1.85;;;1.00;;
27684;SDS011;46113;50.130;8.526;2024-02-26T03:35:17;2.35;;;0.60;;
27684;SDS011;46113;50.130;8.526;2024-02-26T03:37:45;1.05;;;0.93;;
27684;SDS011;46113;50.130;8.526;2024-02-26T03:40:13;4.03;;;0.80;;
27684;SDS011;46113;50.130;8.526;2024-02-26T03:42:41;1.17;;;0.80;;
27684;SDS011;46113;50.130;8.526;2024-02-26T03:45:07;1.65;;;0.82;;
27684;SDS011;46113;50.130;8.526;2024-02-26T03:47:37;1.98;;;0.70;;
27684;SDS011;46113;50.130;8.526;2024-02-26T03:50:05;3.83;;;1.00;;
27684;SDS011;46113;50.130;8.526;2024-02-26T03:52:33;2.50;;;1.02;;
27684;SDS011;46113;50.130;8.526;2024-02-26T03:55:00;1.88;;;1.33;;
27684;SDS011;46113;50.130;8.526;2024-02-26T03:57:27;1.08;;;0.82;;
27684;SDS011;46113;50.130;8.526;2024-02-26T03:59:53;1.08;;;0.70;;
27684;SDS011;46113;50.130;8.526;2024-02-26T04:02:20;2.30;;;1.17;;
27684;SDS011;46113;50.130;8.526;2024-02-26T04:04:49;1.98;;;1.00;;
27684;SDS011;46113;50.130;8.526;2024-02-26T04:07:16;1.88;;;1.00;;
27684;SDS011;46113;50.130;8.526;2024-02-26T04:09:43;2.72;;;1.00;;
27684;SDS011;46113;50.130;8.526;2024-02-26T04:12:10;1.35;;;1.02;;
27684;SDS011;46113;50.130;8.526;2024-02-26T04:14:37;1.73;;;0.70;;
27684;SDS011;46113;50.130;8.526;2024-02-26T04:17:04;1.85;;;1.00;;
27684;SDS011;46113;50.130;8.526;2024-02-26T04:19:31;2.28;;;1.17;;
27684;SDS011;46113;50.130;8.526;2024-02-26T04:21:59;1.27;;;0.90;;
27684;SDS011;46113;50.130;8.526;2024-02-26T04:24:26;1.08;;;0.70;;
27684;SDS011;46113;50.130;8.526;2024-02-26T04:26:52;1.70;;;0.63;;
27684;SDS011;46113;50.130;8.526;2024-02-26T04:29:19;6.28;;;1.25;;
27684;SDS011;46113;50.130;8.526;2024-02-26T04:31:46;2.30;;;1.38;;
27684;SDS011;46113;50.130;8.526;2024-02-26T04:34:13;1.70;;;0.95;;
27684;SDS011;46113;50.130;8.526;2024-02-26T04:36:40;1.52;;;1.20;;
27684;SDS011;46113;50.130;8.526;2024-02-26T04:39:07;1.90;;;0.90;;
27684;SDS011;46113;50.130;8.526;2024-02-26T04:41:34;3.72;;;0.93;;
27684;SDS011;46113;50.130;8.526;2024-02-26T04:44:00;1.05;;;0.90;;
27684;SDS011;46113;50.130;8.526;2024-02-26T04:46:28;1.30;;;0.98;;
27684;SDS011;46113;50.130;8.526;2024-02-26T04:48:54;1.67;;;0.60;;
27684;SDS011;46113;50.130;8.526;2024-02-26T04:51:23;1.77;;;0.95;;
27684;SDS011;46113;50.130;8.526;2024-02-26T04:53:50;1.27;;;0.80;;
27684;SDS011;46113;50.130;8.526;2024-02-26T04:56:17;2.70;;;1.10;;
27684;SDS011;46113;50.130;8.526;2024-02-26T04:58:44;6.93;;;1.42;;
27684;SDS011;46113;50.130;8.526;2024-02-26T05:01:11;2.45;;;1.33;;
27684;SDS011;46113;50.130;8.526;2024-02-26T05:03:38;1.75;;;0.90;;
27684;SDS011;46113;50.130;8.526;2024-02-26T05:06:05;1.67;;;1.10;;
27684;SDS011;46113;50.130;8.526;2024-02-26T05:08:32;1.30;;;1.10;;
27684;SDS011;46113;50.130;8.526;2024-02-26T05:11:00;2.75;;;1.10;;
27684;SDS011;46113;50.130;8.526;2024-02-26T05:13:27;1.45;;;0.98;;
27684;SDS011;46113;50.130;8.526;2024-02-26T05:15:53;3.03;;;1.10;;
27684;SDS011;46113;50.130;8.526;2024-02-26T05:18:21;1.00;;;0.73;;
27684;SDS011;46113;50.130;8.526;2024-02-26T05:20:49;2.00;;;1.20;;
27684;SDS011;46113;50.130;8.526;2024-02-26T05:23:15;2.65;;;1.33;;
27684;SDS011;46113;50.130;8.526;2024-02-26T05:25:42;1.65;;;1.17;;
27684;SDS011;46113;50.130;8.526;2024-02-26T05:28:11;1.63;;;1.15;;
27684;SDS011;46113;50.130;8.526;2024-02-26T05:30:38;4.68;;;1.10;;
27684;SDS011;46113;50.130;8.526;2024-02-26T05:33:06;2.30;;;1.63;;
27684;SDS011;46113;50.130;8.526;2024-02-26T05:35:33;3.92;;;1.65;;
27684;SDS011;46113;50.130;8.526;2024-02-26T05:37:59;1.77;;;1.40;;
27684;SDS011;46113;50.130;8.526;2024-02-26T05:40:26;3.63;;;1.75;;
27684;SDS011;46113;50.130;8.526;2024-02-26T05:42:53;2.90;;;1.58;;
27684;SDS011;46113;50.130;8.526;2024-02-26T05:45:19;5.10;;;1.73;;
27684;SDS011;46113;50.130;8.526;2024-02-26T05:47:46;1.95;;;1.50;;
27684;SDS011;46113;50.130;8.526;2024-02-26T05:50:13;2.25;;;1.60;;
27684;SDS011;46113;50.130;8.526;2024-02-26T05:52:42;3.30;;;1.67;;
27684;SDS011;46113;50.130;8.526;2024-02-26T05:55:09;1.90;;;1.50;;
27684;SDS011;46113;50.130;8.526;2024-02-26T05:57:35;2.05;;;1.60;;
27684;SDS011;46113;50.130;8.526;2024-02-26T06:00:03;1.45;;;1.17;;
27684;SDS011;46113;50.130;8.526;2024-02-26T06:02:39;2.38;;;1.48;;
27684;SDS011;46113;50.130;8.526;2024-02-26T06:05:06;4.20;;;1.80;;
27684;SDS011;46113;50.130;8.526;2024-02-26T06:07:35;2.25;;;1.40;;
27684;SDS011;46113;50.130;8.526;2024-02-26T06:10:02;2.65;;;1.55;;
27684;SDS011;46113;50.130;8.526;2024-02-26T06:12:31;3.38;;;1.30;;
27684;SDS011;46113;50.130;8.526;2024-02-26T06:14:57;3.70;;;1.42;;
27684;SDS011;46113;50.130;8.526;2024-02-26T06:17:27;3.83;;;1.45;;
27684;SDS011;46113;50.130;8.526;2024-02-26T06:19:54;3.28;;;1.90;;
27684;SDS011;46113;50.130;8.526;2024-02-26T06:22:21;2.92;;;1.50;;
27684;SDS011;46113;50.130;8.526;2024-02-26T06:24:48;2.83;;;1.50;;
27684;SDS011;46113;50.130;8.526;2024-02-26T06:27:14;3.08;;;1.27;;
27684;SDS011;46113;50.130;8.526;2024-02-26T06:29:41;2.55;;;1.33;;
27684;SDS011;46113;50.130;8.526;2024-02-26T06:32:08;2.42;;;1.30;;
27684;SDS011;46113;50.130;8.526;2024-02-26T06:34:35;3.63;;;1.52;;
27684;SDS011;46113;50.130;8.526;2024-02-26T06:37:10;3.53;;;1.35;;
27684;SDS011;46113;50.130;8.526;2024-02-26T06:39:37;2.80;;;1.38;;
27684;SDS011;46113;50.130;8.526;2024-02-26T06:42:05;2.53;;;1.63;;
27684;SDS011;46113;50.130;8.526;2024-02-26T06:44:33;1.00;;;0.93;;
27684;SDS011;46113;50.130;8.526;2024-02-26T06:46:59;2.10;;;1.42;;
27684;SDS011;46113;50.130;8.526;2024-02-26T06:49:27;1.90;;;1.38;;
27684;SDS011;46113;50.130;8.526;2024-02-26T06:51:55;2.70;;;1.40;;
27684;SDS011;46113;50.130;8.526;2024-02-26T06:54:29;1.50;;;1.40;;
27684;SDS011;46113;50.130;8.526;2024-02-26T06:56:56;2.97;;;1.40;;
27684;SDS011;46113;50.130;8.526;2024-02-26T06:59:22;3.65;;;1.80;;
27684;SDS011;46113;50.130;8.526;2024-02-26T07:01:50;7.28;;;1.67;;
27684;SDS011;46113;50.130;8.526;2024-02-26T07:04:17;2.65;;;1.45;;
27684;SDS011;46113;50.130;8.526;2024-02-26T07:06:44;2.03;;;1.35;;
27684;SDS011;46113;50.130;8.526;2024-02-26T07:09:13;4.00;;;2.10;;
27684;SDS011;46113;50.130;8.526;2024-02-26T07:11:40;3.58;;;1.95;;
27684;SDS011;46113;50.130;8.526;2024-02-26T07:14:10;1.38;;;1.27;;
27684;SDS011;46113;50.130;8.526;2024-02-26T07:16:38;1.63;;;1.17;;
27684;SDS011;46113;50.130;8.526;2024-02-26T07:19:04;3.70;;;1.90;;
27684;SDS011;46113;50.130;8.526;2024-02-26T07:21:31;4.70;;;1.98;;
27684;SDS011;46113;50.130;8.526;2024-02-26T07:23:58;3.38;;;1.40;;
27684;SDS011;46113;50.130;8.526;2024-02-26T07:26:25;2.45;;;1.40;;
27684;SDS011;46113;50.130;8.526;2024-02-26T07:28:52;2.42;;;1.52;;
27684;SDS011;46113;50.130;8.526;2024-02-26T07:31:19;1.63;;;1.30;;
27684;SDS011;46113;50.130;8.526;2024-02-26T07:33:46;1.85;;;1.25;;
27684;SDS011;46113;50.130;8.526;2024-02-26T07:36:13;1.70;;;1.20;;
27684;SDS011;46113;50.130;8.526;2024-02-26T07:38:39;3.08;;;1.77;;
27684;SDS011;46113;50.130;8.526;2024-02-26T07:41:09;2.80;;;1.50;;
27684;SDS011;46113;50.130;8.526;2024-02-26T07:43:36;3.33;;;1.75;;
27684;SDS011;46113;50.130;8.526;2024-02-26T07:46:03;3.08;;;2.05;;
27684;SDS011;46113;50.130;8.526;2024-02-26T07:48:30;1.52;;;1.23;;
27684;SDS011;46113;50.130;8.526;2024-02-26T07:50:57;2.35;;;1.40;;
27684;SDS011;46113;50.130;8.526;2024-02-26T07:53:25;3.25;;;1.45;;
27684;SDS011;46113;50.130;8.526;2024-02-26T07:55:52;2.85;;;1.70;;
27684;SDS011;46113;50.130;8.526;2024-02-26T07:58:19;2.50;;;1.75;;
27684;SDS011;46113;50.130;8.526;2024-02-26T08:00:46;2.70;;;1.80;;
27684;SDS011;46113;50.130;8.526;2024-02-26T08:03:13;3.70;;;1.50;;
27684;SDS011;46113;50.130;8.526;2024-02-26T08:05:42;3.72;;;1.90;;
27684;SDS011;46113;50.130;8.526;2024-02-26T08:08:09;4.05;;;1.77;;
27684;SDS011;46113;50.130;8.526;2024-02-26T08:10:36;4.50;;;1.80;;
27684;SDS011;46113;50.130;8.526;2024-02-26T08:13:03;4.35;;;2.00;;
27684;SDS011;46113;50.130;8.526;2024-02-26T08:15:33;3.38;;;1.55;;
27684;SDS011;46113;50.130;8.526;2024-02-26T08:18:09;3.95;;;2.00;;
27684;SDS011;46113;50.130;8.526;2024-02-26T08:20:36;4.68;;;1.85;;
27684;SDS011;46113;50.130;8.526;2024-02-26T08:23:03;3.08;;;2.08;;
27684;SDS011;46113;50.130;8.526;2024-02-26T08:25:30;5.97;;;2.05;;
27684;SDS011;46113;50.130;8.526;2024-02-26T08:27:57;2.72;;;1.63;;
27684;SDS011;46113;50.130;8.526;2024-02-26T08:30:25;3.17;;;1.98;;
27684;SDS011;46113;50.130;8.526;2024-02-26T08:32:52;3.03;;;1.85;;
27684;SDS011;46113;50.130;8.526;2024-02-26T08:35:19;3.88;;;1.83;;
27684;SDS011;46113;50.130;8.526;2024-02-26T08:37:46;2.63;;;1.88;;
27684;SDS011;46113;50.130;8.526;2024-02-26T08:40:14;3.25;;;2.10;;
27684;SDS011;46113;50.130;8.526;2024-02-26T08:42:41;2.05;;;1.83;;
27684;SDS011;46113;50.130;8.526;2024-02-26T08:45:08;3.95;;;2.00;;
27684;SDS011;46113;50.130;8.526;2024-02-26T08:47:35;5.90;;;1.90;;
27684;SDS011;46113;50.130;8.526;2024-02-26T08:50:03;2.10;;;1.58;;
27684;SDS011;46113;50.130;8.526;2024-02-26T08:52:30;3.00;;;2.30;;
27684;SDS011;46113;50.130;8.526;2024-02-26T08:54:57;5.03;;;1.88;;
27684;SDS011;46113;50.130;8.526;2024-02-26T08:57:24;3.60;;;2.05;;
27684;SDS011;46113;50.130;8.526;2024-02-26T08:59:54;5.28;;;2.20;;
27684;SDS011;46113;50.130;8.526;2024-02-26T09:02:20;5.10;;;2.30;;
27684;SDS011;46113;50.130;8.526;2024-02-26T09:04:47;3.88;;;1.90;;
27684;SDS011;46113;50.130;8.526;2024-02-26T09:07:14;2.55;;;1.50;;
27684;SDS011;46113;50.130;8.526;2024-02-26T09:09:41;3.42;;;2.13;;
27684;SDS011;46113;50.130;8.526;2024-02-26T09:12:08;4.05;;;2.13;;
27684;SDS011;46113;50.130;8.526;2024-02-26T09:14:35;2.63;;;1.83;;
27684;SDS011;46113;50.130;8.526;2024-02-26T09:17:01;6.28;;;1.90;;
27684;SDS011;46113;50.130;8.526;2024-02-26T09:19:28;3.67;;;2.22;;
27684;SDS011;46113;50.130;8.526;2024-02-26T09:21:55;3.13;;;1.70;;
27684;SDS011;46113;50.130;8.526;2024-02-26T09:24:24;3.13;;;2.00;;
27684;SDS011;46113;50.130;8.526;2024-02-26T09:26:52;4.65;;;2.40;;
27684;SDS011;46113;50.130;8.526;2024-02-26T09:29:18;3.92;;;2.22;;
27684;SDS011;46113;50.130;8.526;2024-02-26T09:31:45;4.90;;;2.75;;
27684;SDS011;46113;50.130;8.526;2024-02-26T09:34:14;3.28;;;1.85;;
27684;SDS011;46113;50.130;8.526;2024-02-26T09:36:41;3.13;;;2.20;;
27684;SDS011;46113;50.130;8.526;2024-02-26T09:39:08;2.45;;;1.65;;
27684;SDS011;46113;50.130;8.526;2024-02-26T09:41:38;2.45;;;1.63;;
27684;SDS011;46113;50.130;8.526;2024-02-26T09:44:05;2.92;;;2.15;;
27684;SDS011;46113;50.130;8.526;2024-02-26T09:46:32;3.55;;;2.25;;
27684;SDS011;46113;50.130;8.526;2024-02-26T09:49:00;3.17;;;1.90;;
27684;SDS011;46113;50.130;8.526;2024-02-26T09:51:27;3.80;;;2.33;;
27684;SDS011;46113;50.130;8.526;2024-02-26T09:53:56;3.55;;;2.20;;
27684;SDS011;46113;50.130;8.526;2024-02-26T09:56:29;5.22;;;2.38;;
27684;SDS011;46113;50.130;8.526;2024-02-26T09:58:57;4.60;;;2.40;;
27684;SDS011;46113;50.130;8.526;2024-02-26T10:01:24;4.10;;;2.22;;
27684;SDS011;46113;50.130;8.526;2024-02-26T10:03:52;3.58;;;2.25;;
27684;SDS011;46113;50.130;8.526;2024-02-26T10:06:23;4.80;;;2.30;;
27684;SDS011;46113;50.130;8.526;2024-02-26T10:08:52;3.83;;;2.17;;
27684;SDS011;46113;50.130;8.526;2024-02-26T10:11:20;6.05;;;2.22;;
27684;SDS011;46113;50.130;8.526;2024-02-26T10:13:48;3.15;;;1.85;;
27684;SDS011;46113;50.130;8.526;2024-02-26T10:16:15;4.32;;;2.28;;
27684;SDS011;46113;50.130;8.526;2024-02-26T10:18:49;2.85;;;1.88;;
27684;SDS011;46113;50.130;8.526;2024-02-26T10:21:25;4.13;;;2.15;;
27684;SDS011;46113;50.130;8.526;2024-02-26T10:23:52;4.47;;;1.63;;
27684;SDS011;46113;50.130;8.526;2024-02-26T10:26:20;3.47;;;2.42;;
27684;SDS011;46113;50.130;8.526;2024-02-26T10:28:48;4.78;;;1.85;;
27684;SDS011;46113;50.130;8.526;2024-02-26T10:31:20;3.38;;;2.20;;
27684;SDS011;46113;50.130;8.526;2024-02-26T10:33:48;3.63;;;2.50;;
27684;SDS011;46113;50.130;8.526;2024-02-26T10:36:15;1.98;;;1.75;;
27684;SDS011;46113;50.130;8.526;2024-02-26T10:38:43;5.18;;;2.38;;
27684;SDS011;46113;50.130;8.526;2024-02-26T10:41:14;3.25;;;1.95;;
27684;SDS011;46113;50.130;8.526;2024-02-26T10:43:42;3.60;;;2.03;;
27684;SDS011;46113;50.130;8.526;2024-02-26T10:46:10;3.60;;;2.30;;
27684;SDS011;46113;50.130;8.526;2024-02-26T10:48:36;3.10;;;2.30;;
27684;SDS011;46113;50.130;8.526;2024-02-26T10:51:03;3.20;;;2.25;;
27684;SDS011;46113;50.130;8.526;2024-02-26T10:53:31;2.55;;;1.80;;
27684;SDS011;46113;50.130;8.526;2024-02-26T10:56:03;2.15;;;1.77;;
27684;SDS011;46113;50.130;8.526;2024-02-26T10:58:31;3.33;;;1.75;;
27684;SDS011;46113;50.130;8.526;2024-02-26T11:00:58;3.95;;;2.17;;
27684;SDS011;46113;50.130;8.526;2024-02-26T11:03:26;2.53;;;1.92;;
27684;SDS011;46113;50.130;8.526;2024-02-26T11:05:58;3.00;;;1.88;;
27684;SDS011;46113;50.130;8.526;2024-02-26T11:08:26;2.47;;;2.20;;
27684;SDS011;46113;50.130;8.526;2024-02-26T11:10:54;3.05;;;1.80;;
27684;SDS011;46113;50.130;8.526;2024-02-26T11:13:23;3.00;;;1.65;;
27684;SDS011;46113;50.130;8.526;2024-02-26T11:15:53;2.92;;;1.85;;
27684;SDS011;46113;50.130;8.526;2024-02-26T11:18:23;2.50;;;1.60;;
27684;SDS011;46113;50.130;8.526;2024-02-26T11:20:54;2.67;;;1.60;;
27684;SDS011;46113;50.130;8.526;2024-02-26T11:23:23;3.75;;;2.03;;
27684;SDS011;46113;50.130;8.526;2024-02-26T11:25:54;4.70;;;1.92;;
27684;SDS011;46113;50.130;8.526;2024-02-26T11:28:26;1.95;;;1.60;;
27684;SDS011;46113;50.130;8.526;2024-02-26T11:30:54;3.10;;;1.85;;
27684;SDS011;46113;50.130;8.526;2024-02-26T11:33:21;2.78;;;1.88;;
27684;SDS011;46113;50.130;8.526;2024-02-26T11:35:48;3.00;;;1.70;;
27684;SDS011;46113;50.130;8.526;2024-02-26T11:38:19;2.85;;;1.73;;
27684;SDS011;46113;50.130;8.526;2024-02-26T11:40:51;4.03;;;1.65;;
27684;SDS011;46113;50.130;8.526;2024-02-26T11:43:23;4.22;;;1.92;;
27684;SDS011;46113;50.130;8.526;2024-02-26T11:46:24;2.90;;;1.50;;
27684;SDS011;46113;50.130;8.526;2024-02-26T11:48:57;3.17;;;1.90;;
27684;SDS011;46113;50.130;8.526;2024-02-26T11:51:32;4.30;;;2.38;;
27684;SDS011;46113;50.130;8.526;2024-02-26T11:54:01;2.05;;;1.60;;
27684;SDS011;46113;50.130;8.526;2024-02-26T11:56:28;3.80;;;2.08;;
27684;SDS011;46113;50.130;8.526;2024-02-26T11:58:59;2.78;;;1.65;;
27684;SDS011;46113;50.130;8.526;2024-02-26T12:04:04;2.70;;;1.90;;
27684;SDS011;46113;50.130;8.526;2024-02-26T12:06:40;4.03;;;1.90;;
27684;SDS011;46113;50.130;8.526;2024-02-26T12:09:08;4.10;;;1.80;;
27684;SDS011;46113;50.130;8.526;2024-02-26T12:11:38;3.35;;;1.67;;
27684;SDS011;46113;50.130;8.526;2024-02-26T12:14:09;2.95;;;2.20;;
27684;SDS011;46113;50.130;8.526;2024-02-26T12:16:37;4.55;;;2.40;;
27684;SDS011;46113;50.130;8.526;2024-02-26T12:19:11;3.10;;;1.27;;
27684;SDS011;46113;50.130;8.526;2024-02-26T12:21:39;4.28;;;1.50;;
27684;SDS011;46113;50.130;8.526;2024-02-26T12:24:09;2.90;;;1.83;;
27684;SDS011;46113;50.130;8.526;2024-02-26T12:26:41;2.45;;;1.58;;
27684;SDS011;46113;50.130;8.526;2024-02-26T12:29:08;3.17;;;2.10;;
27684;SDS011;46113;50.130;8.526;2024-02-26T12:31:36;4.43;;;1.55;;
27684;SDS011;46113;50.130;8.526;2024-02-26T12:34:04;3.08;;;1.80;;
27684;SDS011;46113;50.130;8.526;2024-02-26T12:36:33;3.25;;;1.75;;
27684;SDS011;46113;50.130;8.526;2024-02-26T12:39:04;3.63;;;1.92;;
27684;SDS011;46113;50.130;8.526;2024-02-26T12:41:35;2.08;;;1.42;;
27684;SDS011;46113;50.130;8.526;2024-02-26T12:44:04;2.00;;;1.33;;
27684;SDS011;46113;50.130;8.526;2024-02-26T12:46:31;2.15;;;1.58;;
27684;SDS011;46113;50.130;8.526;2024-02-26T12:48:58;4.45;;;1.70;;
27684;SDS011;46113;50.130;8.526;2024-02-26T12:51:26;3.05;;;1.33;;
27684;SDS011;46113;50.130;8.526;2024-02-26T12:53:54;2.80;;;1.30;;
27684;SDS011;46113;50.130;8.526;2024-02-26T12:56:22;2.95;;;1.40;;
27684;SDS011;46113;50.130;8.526;2024-02-26T12:58:50;2.38;;;1.55;;
27684;SDS011;46113;50.130;8.526;2024-02-26T13:01:19;2.22;;;1.40;;
27684;SDS011;46113;50.130;8.526;2024-02-26T13:03:50;5.18;;;1.85;;
27684;SDS011;46113;50.130;8.526;2024-02-26T13:06:19;2.60;;;1.20;;
27684;SDS011;46113;50.130;8.526;2024-02-26T13:08:46;2.72;;;1.48;;
27684;SDS011;46113;50.130;8.526;2024-02-26T13:11:14;2.00;;;1.45;;
27684;SDS011;46113;50.130;8.526;2024-02-26T13:13:41;2.78;;;1.85;;
27684;SDS011;46113;50.130;8.526;2024-02-26T13:16:10;2.25;;;1.55;;
27684;SDS011;46113;50.130;8.526;2024-02-26T13:18:40;1.88;;;1.25;;
27684;SDS011;46113;50.130;8.526;2024-02-26T13:21:08;3.28;;;1.90;;
27684;SDS011;46113;50.130;8.526;2024-02-26T13:23:42;2.40;;;1.33;;
27684;SDS011;46113;50.130;8.526;2024-02-26T13:26:11;2.92;;;1.30;;
27684;SDS011;46113;50.130;8.526;2024-02-26T13:28:39;1.35;;;1.02;;
27684;SDS011;46113;50.130;8.526;2024-02-26T13:31:06;3.33;;;1.25;;
27684;SDS011;46113;50.130;8.526;2024-02-26T13:33:34;2.35;;;1.30;;
27684;SDS011;46113;50.130;8.526;2024-02-26T13:36:02;2.83;;;1.33;;
27684;SDS011;46113;50.130;8.526;2024-02-26T13:38:30;1.58;;;1.20;;
27684;SDS011;46113;50.130;8.526;2024-02-26T13:40:57;2.00;;;1.35;;
27684;SDS011;46113;50.130;8.526;2024-02-26T13:43:23;2.10;;;1.40;;
27684;SDS011;46113;50.130;8.526;2024-02-26T13:45:50;3.08;;;1.33;;
27684;SDS011;46113;50.130;8.526;2024-02-26T13:48:17;2.72;;;1.20;;
27684;SDS011;46113;50.130;8.526;2024-02-26T13:50:44;2.28;;;1.08;;
27684;SDS011;46113;50.130;8.526;2024-02-26T13:53:13;1.95;;;1.20;;
27684;SDS011;46113;50.130;8.526;2024-02-26T13:55:40;1.92;;;0.98;;
27684;SDS011;46113;50.130;8.526;2024-02-26T13:58:11;2.20;;;1.08;;
27684;SDS011;46113;50.130;8.526;2024-02-26T14:00:42;2.30;;;1.13;;
27684;SDS011;46113;50.130;8.526;2024-02-26T14:03:10;2.45;;;1.40;;
27684;SDS011;46113;50.130;8.526;2024-02-26T14:05:36;1.33;;;0.98;;
27684;SDS011;46113;50.130;8.526;2024-02-26T14:08:03;1.95;;;1.02;;
27684;SDS011;46113;50.130;8.526;2024-02-26T14:10:31;2.55;;;1.30;;
27684;SDS011;46113;50.130;8.526;2024-02-26T14:12:58;1.02;;;0.93;;
27684;SDS011;46113;50.130;8.526;2024-02-26T14:15:27;1.60;;;0.90;;
27684;SDS011;46113;50.130;8.526;2024-02-26T14:17:55;1.80;;;1.20;;
27684;SDS011;46113;50.130;8.526;2024-02-26T14:20:23;3.53;;;1.13;;
27684;SDS011;46113;50.130;8.526;2024-02-26T14:22:51;1.50;;;0.95;;
27684;SDS011;46113;50.130;8.526;2024-02-26T14:25:21;1.10;;;0.82;;
27684;SDS011;46113;50.130;8.526;2024-02-26T14:27:48;2.25;;;0.80;;
27684;SDS011;46113;50.130;8.526;2024-02-26T14:30:15;1.90;;;0.93;;
27684;SDS011;46113;50.130;8.526;2024-02-26T14:32:42;1.23;;;0.93;;
27684;SDS011;46113;50.130;8.526;2024-02-26T14:35:10;1.27;;;0.73;;
27684;SDS011;46113;50.130;8.526;2024-02-26T14:37:43;2.33;;;1.25;;
27684;SDS011;46113;50.130;8.526;2024-02-26T14:40:14;2.70;;;1.00;;
27684;SDS011;46113;50.130;8.526;2024-02-26T14:42:54;0.90;;;0.82;;
27684;SDS011;46113;50.130;8.526;2024-02-26T14:45:27;0.98;;;0.90;;
27684;SDS011;46113;50.130;8.526;2024-02-26T14:47:53;1.70;;;0.90;;
27684;SDS011;46113;50.130;8.526;2024-02-26T14:50:21;1.20;;;0.77;;
27684;SDS011;46113;50.130;8.526;2024-02-26T14:52:48;1.00;;;0.52;;
27684;SDS011;46113;50.130;8.526;2024-02-26T14:55:15;1.10;;;0.88;;